sensor_id;sensor_type;location;lat;lon;timestamp;pressure;altitude;pressure_sealevel;temperature;humidity
25084;BME280;13075;55.682;37.564;2023-05-19T00:01:43;100081.91;;;24.93;88.92
25084;BME280;13075;55.682;37.564;2023-05-19T00:04:09;100079.72;;;24.95;90.31
25084;BME280;13075;55.682;37.564;2023-05-19T00:06:36;100090.88;;;25.08;87.22
25084;BME280;13075;55.682;37.564;2023-05-19T00:09:06;100084.28;;;25.09;86.48
25084;BME280;13075;55.682;37.564;2023-05-19T00:11:32;100090.06;;;25.08;86.30
25084;BME280;13075;55.682;37.564;2023-05-19T00:13:58;100093.47;;;24.69;89.17
25084;BME280;13075;55.682;37.564;2023-05-19T00:16:25;100095.53;;;25.08;86.34
25084;BME280;13075;55.682;37.564;2023-05-19T00:18:50;100095.44;;;24.54;89.87
25084;BME280;13075;55.682;37.564;2023-05-19T00:21:17;100103.00;;;24.92;88.48
25084;BME280;13075;55.682;37.564;2023-05-19T00:23:43;100103.09;;;24.47;92.92
25084;BME280;13075;55.682;37.564;2023-05-19T00:26:09;100109.06;;;24.79;89.92
25084;BME280;13075;55.682;37.564;2023-05-19T00:28:36;100109.63;;;24.66;93.41
25084;BME280;13075;55.682;37.564;2023-05-19T00:31:05;100112.81;;;25.03;88.65
25084;BME280;13075;55.682;37.564;2023-05-19T00:33:31;100118.94;;;24.55;92.68
25084;BME280;13075;55.682;37.564;2023-05-19T00:36:00;100121.47;;;24.36;96.51
25084;BME280;13075;55.682;37.564;2023-05-19T00:38:31;100126.84;;;24.82;92.48
25084;BME280;13075;55.682;37.564;2023-05-19T00:41:01;100127.63;;;24.97;89.52
25084;BME280;13075;55.682;37.564;2023-05-19T00:43:27;100129.66;;;24.46;91.84
25084;BME280;13075;55.682;37.564;2023-05-19T00:45:54;100129.44;;;24.17;93.04
25084;BME280;13075;55.682;37.564;2023-05-19T00:48:19;100127.16;;;24.60;91.37
25084;BME280;13075;55.682;37.564;2023-05-19T00:50:46;100126.13;;;24.31;93.20
25084;BME280;13075;55.682;37.564;2023-05-19T00:53:12;100129.41;;;24.33;92.23
25084;BME280;13075;55.682;37.564;2023-05-19T00:55:38;100134.03;;;23.77;93.56
25084;BME280;13075;55.682;37.564;2023-05-19T00:58:05;100127.50;;;24.08;93.26
25084;BME280;13075;55.682;37.564;2023-05-19T01:03:13;100131.84;;;24.34;86.50
25084;BME280;13075;55.682;37.564;2023-05-19T01:05:39;100123.66;;;23.89;89.65
25084;BME280;13075;55.682;37.564;2023-05-19T01:08:11;100121.78;;;24.09;88.36
25084;BME280;13075;55.682;37.564;2023-05-19T01:10:37;100135.41;;;23.94;89.28
25084;BME280;13075;55.682;37.564;2023-05-19T01:13:03;100129.16;;;24.14;87.63
25084;BME280;13075;55.682;37.564;2023-05-19T01:15:29;100130.50;;;24.06;88.02
25084;BME280;13075;55.682;37.564;2023-05-19T01:20:35;100135.44;;;24.25;85.63
25084;BME280;13075;55.682;37.564;2023-05-19T01:23:08;100137.03;;;23.90;89.97
25084;BME280;13075;55.682;37.564;2023-05-19T01:31:22;100147.44;;;23.93;94.32
25084;BME280;13075;55.682;37.564;2023-05-19T01:33:48;100135.66;;;23.88;96.44
25084;BME280;13075;55.682;37.564;2023-05-19T01:36:15;100147.13;;;23.70;97.70
25084;BME280;13075;55.682;37.564;2023-05-19T01:38:42;100141.63;;;23.49;99.54
25084;BME280;13075;55.682;37.564;2023-05-19T01:41:07;100145.50;;;23.69;99.97
25084;BME280;13075;55.682;37.564;2023-05-19T01:43:33;100150.75;;;24.10;95.93
25084;BME280;13075;55.682;37.564;2023-05-19T01:46:00;100152.91;;;23.98;98.35
25084;BME280;13075;55.682;37.564;2023-05-19T01:48:26;100160.75;;;23.44;100.00
25084;BME280;13075;55.682;37.564;2023-05-19T01:50:52;100162.88;;;23.32;100.00
25084;BME280;13075;55.682;37.564;2023-05-19T01:53:21;100169.88;;;23.13;100.00
25084;BME280;13075;55.682;37.564;2023-05-19T01:55:48;100161.31;;;22.89;100.00
25084;BME280;13075;55.682;37.564;2023-05-19T02:04:00;100175.69;;;22.70;100.00
25084;BME280;13075;55.682;37.564;2023-05-19T02:11:09;100183.66;;;22.08;100.00
25084;BME280;13075;55.682;37.564;2023-05-19T02:13:39;100181.94;;;22.33;100.00
25084;BME280;13075;55.682;37.564;2023-05-19T02:16:07;100194.22;;;22.04;95.21
25084;BME280;13075;55.682;37.564;2023-05-19T02:18:35;100201.72;;;21.65;94.11
25084;BME280;13075;55.682;37.564;2023-05-19T02:21:01;100199.53;;;21.41;87.04
25084;BME280;13075;55.682;37.564;2023-05-19T02:23:26;100196.88;;;21.94;83.52
25084;BME280;13075;55.682;37.564;2023-05-19T02:25:52;100199.03;;;21.92;79.52
25084;BME280;13075;55.682;37.564;2023-05-19T02:28:17;100212.53;;;21.82;80.12
25084;BME280;13075;55.682;37.564;2023-05-19T02:30:43;100211.06;;;21.48;79.34
25084;BME280;13075;55.682;37.564;2023-05-19T02:33:08;100217.94;;;21.55;78.07
25084;BME280;13075;55.682;37.564;2023-05-19T02:35:35;100221.38;;;21.46;78.08
25084;BME280;13075;55.682;37.564;2023-05-19T02:38:01;100220.84;;;21.92;75.26
25084;BME280;13075;55.682;37.564;2023-05-19T02:40:26;100216.16;;;21.39;76.17
25084;BME280;13075;55.682;37.564;2023-05-19T02:42:52;100220.16;;;21.58;72.37
25084;BME280;13075;55.682;37.564;2023-05-19T02:45:17;100220.53;;;21.19;72.36
25084;BME280;13075;55.682;37.564;2023-05-19T02:47:43;100217.91;;;21.29;71.80
25084;BME280;13075;55.682;37.564;2023-05-19T02:50:08;100216.72;;;21.90;70.87
25084;BME280;13075;55.682;37.564;2023-05-19T02:52:34;100220.38;;;21.52;69.56
25084;BME280;13075;55.682;37.564;2023-05-19T02:54:59;100215.13;;;21.24;69.76
25084;BME280;13075;55.682;37.564;2023-05-19T02:57:25;100225.16;;;21.66;69.42
25084;BME280;13075;55.682;37.564;2023-05-19T02:59:51;100222.78;;;21.27;69.72
25084;BME280;13075;55.682;37.564;2023-05-19T03:02:16;100222.97;;;21.20;69.34
25084;BME280;13075;55.682;37.564;2023-05-19T03:04:42;100219.72;;;21.45;68.00
25084;BME280;13075;55.682;37.564;2023-05-19T03:07:08;100227.47;;;21.31;67.48
25084;BME280;13075;55.682;37.564;2023-05-19T03:09:37;100225.44;;;21.22;67.46
25084;BME280;13075;55.682;37.564;2023-05-19T03:12:03;100227.44;;;21.74;66.30
25084;BME280;13075;55.682;37.564;2023-05-19T03:14:30;100233.53;;;21.60;64.94
25084;BME280;13075;55.682;37.564;2023-05-19T03:16:56;100222.88;;;21.58;64.47
25084;BME280;13075;55.682;37.564;2023-05-19T03:19:24;100233.94;;;21.73;65.06
25084;BME280;13075;55.682;37.564;2023-05-19T03:21:49;100236.78;;;22.05;64.55
25084;BME280;13075;55.682;37.564;2023-05-19T03:24:15;100246.84;;;21.56;64.61
25084;BME280;13075;55.682;37.564;2023-05-19T03:26:40;100241.78;;;21.65;64.69
25084;BME280;13075;55.682;37.564;2023-05-19T03:29:06;100243.50;;;21.49;63.91
25084;BME280;13075;55.682;37.564;2023-05-19T03:31:35;100258.16;;;21.27;66.48
25084;BME280;13075;55.682;37.564;2023-05-19T03:34:00;100256.66;;;21.36;65.85
25084;BME280;13075;55.682;37.564;2023-05-19T03:36:26;100250.69;;;21.60;66.70
25084;BME280;13075;55.682;37.564;2023-05-19T03:38:57;100263.22;;;21.40;67.56
25084;BME280;13075;55.682;37.564;2023-05-19T03:41:23;100256.13;;;21.82;67.30
25084;BME280;13075;55.682;37.564;2023-05-19T03:43:49;100264.69;;;21.26;70.00
25084;BME280;13075;55.682;37.564;2023-05-19T03:46:15;100258.63;;;20.85;71.99
25084;BME280;13075;55.682;37.564;2023-05-19T03:49:15;100258.56;;;21.14;70.35
25084;BME280;13075;55.682;37.564;2023-05-19T03:51:56;100265.69;;;21.63;70.21
25084;BME280;13075;55.682;37.564;2023-05-19T03:54:32;100273.31;;;21.39;69.40
25084;BME280;13075;55.682;37.564;2023-05-19T03:56:57;100267.53;;;21.36;72.14
25084;BME280;13075;55.682;37.564;2023-05-19T03:59:23;100272.88;;;21.26;72.96
25084;BME280;13075;55.682;37.564;2023-05-19T04:01:49;100283.25;;;21.72;69.95
25084;BME280;13075;55.682;37.564;2023-05-19T04:04:15;100273.75;;;21.53;71.40
25084;BME280;13075;55.682;37.564;2023-05-19T04:06:40;100275.06;;;21.72;70.19
25084;BME280;13075;55.682;37.564;2023-05-19T04:09:12;100281.59;;;21.71;70.13
25084;BME280;13075;55.682;37.564;2023-05-19T04:11:38;100279.19;;;20.93;74.20
25084;BME280;13075;55.682;37.564;2023-05-19T04:14:04;100274.94;;;21.40;75.08
25084;BME280;13075;55.682;37.564;2023-05-19T04:16:30;100284.72;;;21.36;73.36
25084;BME280;13075;55.682;37.564;2023-05-19T04:18:55;100272.50;;;20.84;77.03
25084;BME280;13075;55.682;37.564;2023-05-19T04:21:21;100279.38;;;21.25;75.56
25084;BME280;13075;55.682;37.564;2023-05-19T04:23:47;100275.94;;;20.96;76.00
25084;BME280;13075;55.682;37.564;2023-05-19T04:26:13;100283.91;;;21.19;74.50
25084;BME280;13075;55.682;37.564;2023-05-19T04:28:39;100283.75;;;21.69;74.01
25084;BME280;13075;55.682;37.564;2023-05-19T04:31:06;100278.41;;;21.52;74.76
25084;BME280;13075;55.682;37.564;2023-05-19T04:33:35;100280.47;;;21.67;73.38
25084;BME280;13075;55.682;37.564;2023-05-19T04:36:01;100278.47;;;21.84;70.87
25084;BME280;13075;55.682;37.564;2023-05-19T04:38:30;100277.69;;;22.10;70.00
25084;BME280;13075;55.682;37.564;2023-05-19T04:40:55;100285.03;;;21.83;73.35
25084;BME280;13075;55.682;37.564;2023-05-19T04:43:24;100290.69;;;21.55;74.04
25084;BME280;13075;55.682;37.564;2023-05-19T04:45:51;100284.38;;;21.98;73.38
25084;BME280;13075;55.682;37.564;2023-05-19T04:48:19;100289.56;;;21.99;71.81
25084;BME280;13075;55.682;37.564;2023-05-19T04:50:47;100294.91;;;21.67;74.48
25084;BME280;13075;55.682;37.564;2023-05-19T04:53:21;100293.75;;;21.85;75.33
25084;BME280;13075;55.682;37.564;2023-05-19T04:55:47;100293.00;;;22.11;72.70
25084;BME280;13075;55.682;37.564;2023-05-19T04:58:13;100287.16;;;22.03;72.57
25084;BME280;13075;55.682;37.564;2023-05-19T05:00:39;100284.59;;;21.69;74.72
25084;BME280;13075;55.682;37.564;2023-05-19T05:03:06;100288.94;;;21.70;73.53
25084;BME280;13075;55.682;37.564;2023-05-19T05:05:33;100290.47;;;21.83;75.00
25084;BME280;13075;55.682;37.564;2023-05-19T05:07:59;100291.72;;;21.10;76.71
25084;BME280;13075;55.682;37.564;2023-05-19T05:10:27;100294.91;;;21.07;77.66
25084;BME280;13075;55.682;37.564;2023-05-19T05:12:52;100296.50;;;21.42;77.43
25084;BME280;13075;55.682;37.564;2023-05-19T05:15:18;100296.81;;;21.07;79.83
25084;BME280;13075;55.682;37.564;2023-05-19T05:17:47;100295.91;;;21.18;82.18
25084;BME280;13075;55.682;37.564;2023-05-19T05:20:13;100295.97;;;20.40;84.80
25084;BME280;13075;55.682;37.564;2023-05-19T05:22:39;100310.75;;;20.77;85.58
25084;BME280;13075;55.682;37.564;2023-05-19T05:25:07;100308.47;;;20.24;87.19
25084;BME280;13075;55.682;37.564;2023-05-19T05:27:33;100312.97;;;20.80;84.85
25084;BME280;13075;55.682;37.564;2023-05-19T05:29:58;100316.09;;;21.05;84.16
25084;BME280;13075;55.682;37.564;2023-05-19T05:32:26;100317.69;;;20.85;86.53
25084;BME280;13075;55.682;37.564;2023-05-19T05:34:53;100314.09;;;21.01;85.13
25084;BME280;13075;55.682;37.564;2023-05-19T05:37:18;100315.59;;;20.75;87.83
25084;BME280;13075;55.682;37.564;2023-05-19T05:39:44;100303.88;;;20.91;85.46
25084;BME280;13075;55.682;37.564;2023-05-19T05:42:09;100316.13;;;21.44;83.13
25084;BME280;13075;55.682;37.564;2023-05-19T05:44:36;100319.66;;;20.89;86.41
25084;BME280;13075;55.682;37.564;2023-05-19T05:47:03;100319.47;;;20.96;84.80
25084;BME280;13075;55.682;37.564;2023-05-19T05:49:30;100327.78;;;21.39;84.88
25084;BME280;13075;55.682;37.564;2023-05-19T05:51:56;100329.25;;;21.30;82.46
25084;BME280;13075;55.682;37.564;2023-05-19T05:54:23;100326.31;;;21.32;81.72
25084;BME280;13075;55.682;37.564;2023-05-19T05:56:50;100328.53;;;21.56;80.82
25084;BME280;13075;55.682;37.564;2023-05-19T05:59:15;100325.63;;;21.41;82.51
25084;BME280;13075;55.682;37.564;2023-05-19T06:01:42;100328.50;;;21.73;78.55
25084;BME280;13075;55.682;37.564;2023-05-19T06:04:09;100333.50;;;21.21;82.89
25084;BME280;13075;55.682;37.564;2023-05-19T06:06:34;100329.03;;;21.15;82.00
25084;BME280;13075;55.682;37.564;2023-05-19T06:09:04;100328.03;;;21.04;83.50
25084;BME280;13075;55.682;37.564;2023-05-19T06:11:30;100330.03;;;21.47;80.95
25084;BME280;13075;55.682;37.564;2023-05-19T06:13:57;100334.28;;;21.98;76.86
25084;BME280;13075;55.682;37.564;2023-05-19T06:16:52;100329.66;;;21.99;75.42
25084;BME280;13075;55.682;37.564;2023-05-19T06:19:18;100335.56;;;21.52;78.04
25084;BME280;13075;55.682;37.564;2023-05-19T06:21:46;100333.44;;;21.38;80.05
25084;BME280;13075;55.682;37.564;2023-05-19T06:24:13;100335.41;;;21.81;77.85
25084;BME280;13075;55.682;37.564;2023-05-19T06:26:38;100330.44;;;21.78;77.27
25084;BME280;13075;55.682;37.564;2023-05-19T06:29:04;100332.47;;;21.44;79.32
25084;BME280;13075;55.682;37.564;2023-05-19T06:31:30;100324.66;;;21.91;76.39
25084;BME280;13075;55.682;37.564;2023-05-19T06:34:04;100324.69;;;21.52;77.02
25084;BME280;13075;55.682;37.564;2023-05-19T06:36:30;100333.00;;;20.91;80.85
25084;BME280;13075;55.682;37.564;2023-05-19T06:38:56;100336.72;;;21.56;76.30
25084;BME280;13075;55.682;37.564;2023-05-19T06:41:23;100329.25;;;21.08;76.82
25084;BME280;13075;55.682;37.564;2023-05-19T06:43:50;100339.81;;;20.93;77.48
25084;BME280;13075;55.682;37.564;2023-05-19T06:46:17;100337.63;;;21.45;75.71
25084;BME280;13075;55.682;37.564;2023-05-19T06:48:43;100344.34;;;21.38;75.31
25084;BME280;13075;55.682;37.564;2023-05-19T06:51:09;100336.66;;;21.73;74.13
25084;BME280;13075;55.682;37.564;2023-05-19T06:53:36;100342.44;;;22.25;71.57
25084;BME280;13075;55.682;37.564;2023-05-19T06:56:06;100336.44;;;22.50;69.33
25084;BME280;13075;55.682;37.564;2023-05-19T06:58:34;100346.97;;;22.63;68.16
25084;BME280;13075;55.682;37.564;2023-05-19T07:01:02;100339.47;;;22.80;65.93
25084;BME280;13075;55.682;37.564;2023-05-19T07:03:33;100339.22;;;22.55;67.52
25084;BME280;13075;55.682;37.564;2023-05-19T07:05:59;100339.09;;;22.71;67.39
25084;BME280;13075;55.682;37.564;2023-05-19T07:08:25;100336.22;;;22.56;66.04
25084;BME280;13075;55.682;37.564;2023-05-19T07:10:52;100344.66;;;22.28;67.45
25084;BME280;13075;55.682;37.564;2023-05-19T07:13:20;100337.19;;;23.04;65.76
25084;BME280;13075;55.682;37.564;2023-05-19T07:15:47;100339.13;;;23.08;64.39
25084;BME280;13075;55.682;37.564;2023-05-19T07:18:17;100356.53;;;22.65;63.97
25084;BME280;13075;55.682;37.564;2023-05-19T07:20:43;100347.13;;;22.56;66.01
25084;BME280;13075;55.682;37.564;2023-05-19T07:23:09;100342.41;;;22.73;65.19
25084;BME280;13075;55.682;37.564;2023-05-19T07:25:35;100345.50;;;22.87;63.11
25084;BME280;13075;55.682;37.564;2023-05-19T07:28:00;100345.78;;;22.85;64.72
25084;BME280;13075;55.682;37.564;2023-05-19T07:30:26;100339.41;;;23.07;63.33
25084;BME280;13075;55.682;37.564;2023-05-19T07:32:52;100341.41;;;23.21;62.23
25084;BME280;13075;55.682;37.564;2023-05-19T07:35:17;100340.84;;;23.61;59.66
25084;BME280;13075;55.682;37.564;2023-05-19T07:37:43;100334.78;;;23.54;60.96
25084;BME280;13075;55.682;37.564;2023-05-19T07:40:08;100346.47;;;23.39;60.36
25084;BME280;13075;55.682;37.564;2023-05-19T07:42:34;100349.41;;;22.64;62.07
25084;BME280;13075;55.682;37.564;2023-05-19T07:44:59;100348.28;;;22.92;61.60
25084;BME280;13075;55.682;37.564;2023-05-19T07:47:27;100343.97;;;22.96;61.39
25084;BME280;13075;55.682;37.564;2023-05-19T07:49:52;100342.06;;;22.97;61.17
25084;BME280;13075;55.682;37.564;2023-05-19T07:52:18;100342.19;;;23.53;60.17
25084;BME280;13075;55.682;37.564;2023-05-19T07:54:44;100342.94;;;23.49;60.21
25084;BME280;13075;55.682;37.564;2023-05-19T07:57:10;100334.09;;;23.32;59.16
25084;BME280;13075;55.682;37.564;2023-05-19T07:59:35;100338.94;;;23.20;59.88
25084;BME280;13075;55.682;37.564;2023-05-19T08:02:01;100340.78;;;24.08;56.92
25084;BME280;13075;55.682;37.564;2023-05-19T08:04:26;100339.09;;;23.97;56.37
25084;BME280;13075;55.682;37.564;2023-05-19T08:06:52;100341.69;;;24.39;55.09
25084;BME280;13075;55.682;37.564;2023-05-19T08:09:18;100345.34;;;23.87;54.67
25084;BME280;13075;55.682;37.564;2023-05-19T08:11:44;100340.91;;;24.99;52.63
25084;BME280;13075;55.682;37.564;2023-05-19T08:14:11;100347.16;;;25.19;51.81
25084;BME280;13075;55.682;37.564;2023-05-19T08:16:36;100341.00;;;26.81;47.10
25084;BME280;13075;55.682;37.564;2023-05-19T08:19:02;100345.16;;;25.75;47.75
25084;BME280;13075;55.682;37.564;2023-05-19T08:21:29;100350.78;;;25.99;48.00
25084;BME280;13075;55.682;37.564;2023-05-19T08:23:59;100349.31;;;25.53;48.43
25084;BME280;13075;55.682;37.564;2023-05-19T08:26:24;100351.13;;;27.14;44.67
25084;BME280;13075;55.682;37.564;2023-05-19T08:28:50;100347.97;;;28.02;40.88
25084;BME280;13075;55.682;37.564;2023-05-19T08:31:16;100356.19;;;28.25;39.56
25084;BME280;13075;55.682;37.564;2023-05-19T08:33:42;100359.56;;;27.75;38.09
25084;BME280;13075;55.682;37.564;2023-05-19T08:36:08;100353.16;;;27.32;36.94
25084;BME280;13075;55.682;37.564;2023-05-19T08:38:33;100350.09;;;27.10;36.35
25084;BME280;13075;55.682;37.564;2023-05-19T08:40:59;100348.38;;;27.14;35.74
25084;BME280;13075;55.682;37.564;2023-05-19T08:43:24;100358.88;;;27.41;35.84
25084;BME280;13075;55.682;37.564;2023-05-19T08:45:50;100346.63;;;27.23;35.64
25084;BME280;13075;55.682;37.564;2023-05-19T08:48:18;100358.91;;;27.31;35.91
25084;BME280;13075;55.682;37.564;2023-05-19T08:50:45;100347.84;;;27.64;35.22
25084;BME280;13075;55.682;37.564;2023-05-19T08:53:16;100354.03;;;27.28;34.92
25084;BME280;13075;55.682;37.564;2023-05-19T08:55:53;100337.81;;;27.26;34.40
25084;BME280;13075;55.682;37.564;2023-05-19T08:58:19;100337.09;;;27.68;34.09
25084;BME280;13075;55.682;37.564;2023-05-19T09:00:46;100341.22;;;28.13;33.83
25084;BME280;13075;55.682;37.564;2023-05-19T09:03:12;100336.03;;;28.49;33.52
25084;BME280;13075;55.682;37.564;2023-05-19T09:05:39;100333.44;;;28.38;33.16
25084;BME280;13075;55.682;37.564;2023-05-19T09:08:05;100335.72;;;28.69;33.49
25084;BME280;13075;55.682;37.564;2023-05-19T09:10:30;100345.09;;;28.49;33.67
25084;BME280;13075;55.682;37.564;2023-05-19T09:12:56;100341.72;;;27.72;34.44
25084;BME280;13075;55.682;37.564;2023-05-19T09:15:21;100346.06;;;27.55;33.76
25084;BME280;13075;55.682;37.564;2023-05-19T09:17:50;100340.09;;;27.48;33.44
25084;BME280;13075;55.682;37.564;2023-05-19T09:20:15;100333.44;;;27.54;33.12
25084;BME280;13075;55.682;37.564;2023-05-19T09:22:44;100335.94;;;28.54;32.42
25084;BME280;13075;55.682;37.564;2023-05-19T09:25:23;100337.22;;;28.42;32.09
25084;BME280;13075;55.682;37.564;2023-05-19T09:27:48;100336.34;;;29.12;32.09
25084;BME280;13075;55.682;37.564;2023-05-19T09:30:17;100332.84;;;29.65;31.07
25084;BME280;13075;55.682;37.564;2023-05-19T09:32:43;100333.91;;;29.10;30.65
25084;BME280;13075;55.682;37.564;2023-05-19T09:35:10;100324.91;;;29.37;30.62
25084;BME280;13075;55.682;37.564;2023-05-19T09:37:39;100330.88;;;28.79;31.22
25084;BME280;13075;55.682;37.564;2023-05-19T09:40:06;100327.06;;;29.08;30.37
25084;BME280;13075;55.682;37.564;2023-05-19T09:42:33;100323.78;;;28.55;29.88
25084;BME280;13075;55.682;37.564;2023-05-19T09:45:01;100324.88;;;29.50;29.93
25084;BME280;13075;55.682;37.564;2023-05-19T09:47:31;100317.94;;;29.67;29.26
25084;BME280;13075;55.682;37.564;2023-05-19T09:49:57;100319.41;;;29.91;29.49
25084;BME280;13075;55.682;37.564;2023-05-19T09:52:22;100326.31;;;30.52;29.26
25084;BME280;13075;55.682;37.564;2023-05-19T09:54:48;100327.47;;;30.95;28.86
25084;BME280;13075;55.682;37.564;2023-05-19T09:57:15;100318.88;;;29.62;29.30
25084;BME280;13075;55.682;37.564;2023-05-19T09:59:41;100324.19;;;29.72;29.85
25084;BME280;13075;55.682;37.564;2023-05-19T10:02:09;100322.03;;;28.45;29.92
25084;BME280;13075;55.682;37.564;2023-05-19T10:04:39;100309.53;;;29.03;29.77
25084;BME280;13075;55.682;37.564;2023-05-19T10:07:05;100311.09;;;29.23;29.89
25084;BME280;13075;55.682;37.564;2023-05-19T10:09:31;100301.31;;;29.44;29.99
25084;BME280;13075;55.682;37.564;2023-05-19T10:11:57;100313.25;;;28.94;30.13
25084;BME280;13075;55.682;37.564;2023-05-19T10:14:23;100309.53;;;28.34;30.79
25084;BME280;13075;55.682;37.564;2023-05-19T10:16:49;100300.31;;;28.62;31.03
25084;BME280;13075;55.682;37.564;2023-05-19T10:19:16;100310.84;;;28.55;30.89
25084;BME280;13075;55.682;37.564;2023-05-19T10:21:44;100303.34;;;28.42;31.20
25084;BME280;13075;55.682;37.564;2023-05-19T10:24:10;100305.50;;;28.45;30.95
25084;BME280;13075;55.682;37.564;2023-05-19T10:26:35;100297.91;;;28.00;30.94
25084;BME280;13075;55.682;37.564;2023-05-19T10:29:02;100307.50;;;27.60;30.92
25084;BME280;13075;55.682;37.564;2023-05-19T10:31:29;100306.59;;;27.46;31.14
25084;BME280;13075;55.682;37.564;2023-05-19T10:36:31;100306.06;;;27.39;31.23
25084;BME280;13075;55.682;37.564;2023-05-19T10:39:03;100308.91;;;27.29;31.50
25084;BME280;13075;55.682;37.564;2023-05-19T10:46:52;100299.97;;;27.89;31.66
25084;BME280;13075;55.682;37.564;2023-05-19T10:49:21;100308.25;;;28.26;31.41
25084;BME280;13075;55.682;37.564;2023-05-19T10:51:46;100307.16;;;28.46;30.96
25084;BME280;13075;55.682;37.564;2023-05-19T10:54:12;100299.84;;;28.36;30.53
25084;BME280;13075;55.682;37.564;2023-05-19T10:56:41;100299.88;;;28.18;31.50
25084;BME280;13075;55.682;37.564;2023-05-19T10:59:07;100308.38;;;27.55;31.07
25084;BME280;13075;55.682;37.564;2023-05-19T11:01:53;100307.31;;;27.51;31.06
25084;BME280;13075;55.682;37.564;2023-05-19T11:04:18;100313.72;;;28.13;31.23
25084;BME280;13075;55.682;37.564;2023-05-19T11:07:02;100312.72;;;27.80;31.30
25084;BME280;13075;55.682;37.564;2023-05-19T11:09:28;100310.00;;;27.33;30.73
25084;BME280;13075;55.682;37.564;2023-05-19T11:12:00;100307.09;;;27.19;30.88
25084;BME280;13075;55.682;37.564;2023-05-19T11:14:27;100303.91;;;27.83;31.25
25084;BME280;13075;55.682;37.564;2023-05-19T11:16:56;100306.06;;;27.86;31.01
25084;BME280;13075;55.682;37.564;2023-05-19T11:21:50;100300.41;;;28.20;30.89
25084;BME280;13075;55.682;37.564;2023-05-19T11:25:01;100299.88;;;28.18;30.73
25084;BME280;13075;55.682;37.564;2023-05-19T11:29:43;100301.47;;;27.58;32.06
25084;BME280;13075;55.682;37.564;2023-05-19T11:32:09;100285.31;;;27.75;31.09
25084;BME280;13075;55.682;37.564;2023-05-19T11:34:35;100303.44;;;27.76;30.74
25084;BME280;13075;55.682;37.564;2023-05-19T11:37:01;100307.63;;;27.50;31.20
25084;BME280;13075;55.682;37.564;2023-05-19T11:39:27;100314.06;;;27.40;30.86
25084;BME280;13075;55.682;37.564;2023-05-19T11:41:54;100302.25;;;27.40;30.46
25084;BME280;13075;55.682;37.564;2023-05-19T11:44:19;100295.09;;;27.62;30.47
25084;BME280;13075;55.682;37.564;2023-05-19T11:46:45;100303.19;;;27.54;30.30
25084;BME280;13075;55.682;37.564;2023-05-19T11:49:10;100299.13;;;27.23;30.46
25084;BME280;13075;55.682;37.564;2023-05-19T11:51:36;100301.16;;;27.41;30.65
25084;BME280;13075;55.682;37.564;2023-05-19T11:54:02;100298.59;;;27.68;30.61
25084;BME280;13075;55.682;37.564;2023-05-19T11:56:32;100306.00;;;27.91;30.52
25084;BME280;13075;55.682;37.564;2023-05-19T11:58:57;100309.28;;;27.69;30.09
25084;BME280;13075;55.682;37.564;2023-05-19T12:01:23;100308.56;;;27.82;30.32
25084;BME280;13075;55.682;37.564;2023-05-19T12:03:51;100307.22;;;27.80;30.58
25084;BME280;13075;55.682;37.564;2023-05-19T12:06:16;100306.63;;;28.07;30.55
25084;BME280;13075;55.682;37.564;2023-05-19T12:08:41;100309.91;;;28.09;29.70
25084;BME280;13075;55.682;37.564;2023-05-19T12:11:07;100311.06;;;27.60;29.46
25084;BME280;13075;55.682;37.564;2023-05-19T12:13:33;100310.34;;;27.73;30.14
25084;BME280;13075;55.682;37.564;2023-05-19T12:15:59;100315.28;;;27.76;30.11
25084;BME280;13075;55.682;37.564;2023-05-19T12:18:28;100302.31;;;27.58;29.86
25084;BME280;13075;55.682;37.564;2023-05-19T12:20:53;100314.63;;;27.08;29.42
25084;BME280;13075;55.682;37.564;2023-05-19T12:23:19;100306.78;;;27.49;29.66
25084;BME280;13075;55.682;37.564;2023-05-19T12:25:44;100311.09;;;27.32;29.55
25084;BME280;13075;55.682;37.564;2023-05-19T12:28:10;100317.63;;;27.41;29.45
25084;BME280;13075;55.682;37.564;2023-05-19T12:30:35;100316.69;;;27.74;29.36
25084;BME280;13075;55.682;37.564;2023-05-19T12:33:01;100326.25;;;27.00;29.01
25084;BME280;13075;55.682;37.564;2023-05-19T12:35:28;100321.47;;;27.11;28.96
25084;BME280;13075;55.682;37.564;2023-05-19T12:37:53;100321.03;;;27.28;28.98
25084;BME280;13075;55.682;37.564;2023-05-19T12:40:19;100320.78;;;27.24;28.67
25084;BME280;13075;55.682;37.564;2023-05-19T12:42:45;100326.16;;;27.39;28.81
25084;BME280;13075;55.682;37.564;2023-05-19T12:45:12;100321.31;;;27.55;28.26
25084;BME280;13075;55.682;37.564;2023-05-19T12:47:38;100320.91;;;27.85;28.71
25084;BME280;13075;55.682;37.564;2023-05-19T12:50:04;100320.84;;;27.71;28.23
25084;BME280;13075;55.682;37.564;2023-05-19T12:52:32;100324.94;;;27.50;28.54
25084;BME280;13075;55.682;37.564;2023-05-19T12:57:35;100322.56;;;27.15;28.12
25084;BME280;13075;55.682;37.564;2023-05-19T13:00:04;100323.75;;;27.04;27.97
25084;BME280;13075;55.682;37.564;2023-05-19T13:02:35;100313.00;;;27.31;27.90
25084;BME280;13075;55.682;37.564;2023-05-19T13:05:01;100317.91;;;27.10;28.10
25084;BME280;13075;55.682;37.564;2023-05-19T13:07:26;100322.72;;;26.95;28.52
25084;BME280;13075;55.682;37.564;2023-05-19T13:09:52;100320.38;;;27.12;28.63
25084;BME280;13075;55.682;37.564;2023-05-19T13:12:17;100315.88;;;26.92;28.53
25084;BME280;13075;55.682;37.564;2023-05-19T13:14:44;100318.97;;;27.14;28.90
25084;BME280;13075;55.682;37.564;2023-05-19T13:17:10;100327.53;;;27.37;28.60